In Rescue
 
Open Full Screen Window  High Contrast Mode
February 24, 2020 5:51 PM EST
Weather Information
Wind Direction
  ---
Wind Speed
  00 kt (0 mph)
Wind Gust
  00 kt (0 mph)
Altimeter
29.87 in
Visibility
10 SM
Temperature
06° C
43° F
Dewpoint
01° C
34° F
Humidity
71%
1hr Rain Fall
00.00 in.
24hr Rain Fall
00.00 in.
Sky Condition
Overcast @ 4,400 ft
Scattered @ 3,400 ft
VFR

METAR KONZ 242251Z AUTO 00000KT 10SM SCT034 OVC044 06/01 A2987 RMK AO2 T00550012

FAA Disclaimer: The data displayed is for advisory purposes only and is not to be used for flight planning or operations.